createdAt,value
2018-11-03T00:01:38.417Z,6.60
2018-11-03T00:04:06.684Z,6.17
2018-11-03T00:06:34.962Z,7.20
2018-11-03T00:09:04.026Z,6.20
2018-11-03T00:11:32.260Z,6.27
2018-11-03T00:14:00.485Z,6.53
2018-11-03T00:16:28.677Z,6.70
2018-11-03T00:18:56.905Z,6.80
2018-11-03T00:21:25.149Z,6.33
2018-11-03T00:23:53.400Z,5.87
2018-11-03T00:26:21.600Z,6.43
2018-11-03T00:28:49.857Z,6.30
2018-11-03T00:31:18.099Z,6.10
2018-11-03T00:33:46.310Z,6.60
2018-11-03T00:36:14.529Z,5.97
2018-11-03T00:38:43.417Z,6.47
2018-11-03T00:41:11.619Z,6.57
2018-11-03T00:43:39.963Z,6.43
2018-11-03T00:46:08.508Z,6.27
2018-11-03T00:48:36.727Z,6.17
2018-11-03T00:51:04.994Z,6.60
2018-11-03T00:53:33.194Z,5.80
2018-11-03T00:56:01.454Z,6.30
2018-11-03T00:58:29.832Z,7.20
2018-11-03T01:00:58.021Z,7.60
2018-11-03T01:03:26.247Z,6.57
2018-11-03T01:05:54.468Z,7.00
2018-11-03T01:08:22.692Z,7.20
2018-11-03T01:10:50.924Z,6.90
2018-11-03T01:13:19.117Z,6.93
2018-11-03T01:15:47.342Z,7.07
2018-11-03T01:18:15.581Z,7.03
2018-11-03T01:20:43.946Z,7.03
2018-11-03T01:23:12.153Z,7.27
2018-11-03T01:25:40.378Z,6.57
2018-11-03T01:28:08.589Z,7.10
2018-11-03T01:30:36.805Z,7.80
2018-11-03T01:33:05.149Z,7.00
2018-11-03T01:35:33.353Z,7.93
2018-11-03T01:38:01.558Z,8.03
2018-11-03T01:40:29.825Z,7.57
2018-11-03T01:42:58.026Z,8.27
2018-11-03T01:45:26.232Z,7.40
2018-11-03T01:47:54.418Z,7.07
2018-11-03T01:50:22.640Z,7.77
2018-11-03T01:52:50.837Z,8.20
2018-11-03T01:55:19.050Z,8.07
2018-11-03T01:57:47.275Z,8.23
2018-11-03T02:00:15.549Z,7.60
2018-11-03T02:02:43.781Z,8.10
2018-11-03T02:05:12.203Z,7.77
2018-11-03T02:07:40.649Z,8.33
2018-11-03T02:10:09.875Z,8.00
2018-11-03T02:12:38.105Z,7.73
2018-11-03T02:15:06.337Z,8.43
2018-11-03T02:17:34.545Z,8.40
2018-11-03T02:20:02.762Z,9.10
2018-11-03T02:22:31.009Z,8.13
2018-11-03T02:24:59.278Z,8.20
2018-11-03T02:27:27.468Z,8.90
2018-11-03T02:29:55.688Z,8.77
2018-11-03T02:32:23.916Z,8.57
2018-11-03T02:34:52.127Z,8.20
2018-11-03T02:37:20.317Z,9.20
2018-11-03T02:39:48.542Z,8.90
2018-11-03T02:42:16.766Z,8.70
2018-11-03T02:44:44.978Z,8.10
2018-11-03T02:47:13.171Z,9.20
2018-11-03T02:49:41.375Z,9.00
2018-11-03T02:52:09.609Z,8.97
2018-11-03T02:54:37.827Z,7.97
2018-11-03T02:57:06.045Z,7.93
2018-11-03T02:59:34.285Z,8.10
2018-11-03T03:02:02.497Z,8.23
2018-11-03T03:04:30.759Z,8.80
2018-11-03T03:06:58.965Z,7.83
2018-11-03T03:09:27.260Z,8.17
2018-11-03T03:11:55.460Z,7.60
2018-11-03T03:14:23.685Z,8.03
2018-11-03T03:16:52.112Z,7.60
2018-11-03T03:19:20.314Z,8.10
2018-11-03T03:21:48.541Z,8.20
2018-11-03T03:24:16.761Z,7.60
2018-11-03T03:26:44.961Z,7.87
2018-11-03T03:29:13.309Z,8.13
2018-11-03T03:31:41.383Z,8.23
2018-11-03T03:34:09.601Z,8.00
2018-11-03T03:36:37.810Z,8.90
2018-11-03T03:39:08.207Z,8.20
2018-11-03T03:41:36.404Z,8.83
2018-11-03T03:44:04.648Z,8.53
2018-11-03T03:46:32.865Z,8.40
2018-11-03T03:49:01.100Z,8.90
2018-11-03T03:51:29.303Z,8.63
2018-11-03T03:53:57.517Z,9.13
2018-11-03T03:56:25.775Z,8.87
2018-11-03T03:58:53.957Z,9.87
2018-11-03T04:01:22.207Z,9.10
2018-11-03T04:03:50.454Z,9.57
2018-11-03T04:06:18.673Z,10.10
2018-11-03T04:08:46.933Z,10.47
2018-11-03T04:11:15.123Z,11.40
2018-11-03T04:13:43.357Z,12.50
2018-11-03T04:16:11.614Z,13.13
2018-11-03T04:18:40.382Z,12.00
2018-11-03T04:21:08.601Z,11.50
2018-11-03T04:23:36.832Z,12.17
2018-11-03T04:26:05.339Z,12.77
2018-11-03T04:28:33.543Z,12.30
2018-11-03T04:31:01.842Z,11.50
2018-11-03T04:33:30.070Z,11.67
2018-11-03T04:35:58.292Z,11.20
2018-11-03T04:38:26.540Z,11.73
2018-11-03T04:40:54.754Z,11.83
2018-11-03T04:43:23.006Z,12.33
2018-11-03T04:45:51.247Z,11.87
2018-11-03T04:48:19.481Z,12.10
2018-11-03T04:50:47.700Z,11.80
2018-11-03T04:53:15.951Z,12.20
2018-11-03T04:55:44.156Z,12.40
2018-11-03T04:58:12.366Z,12.90
2018-11-03T05:00:40.594Z,12.10
2018-11-03T05:03:08.798Z,12.07
2018-11-03T05:05:37.053Z,12.63
2018-11-03T05:08:05.468Z,11.53
2018-11-03T05:10:33.779Z,12.40
2018-11-03T05:13:01.905Z,13.63
2018-11-03T05:15:30.343Z,11.63
2018-11-03T05:17:58.571Z,12.27
2018-11-03T05:20:26.816Z,11.43
2018-11-03T05:22:55.045Z,12.10
2018-11-03T05:25:23.282Z,10.93
2018-11-03T05:27:51.482Z,12.60
2018-11-03T05:30:19.726Z,12.20
2018-11-03T05:32:47.973Z,11.70
2018-11-03T05:35:16.189Z,11.83
2018-11-03T05:37:44.435Z,12.33
2018-11-03T05:40:12.678Z,11.23
2018-11-03T05:42:40.913Z,12.27
2018-11-03T05:45:09.141Z,12.50
2018-11-03T05:47:37.349Z,12.20
2018-11-03T05:50:07.075Z,12.77
2018-11-03T05:52:35.306Z,12.57
2018-11-03T05:55:03.567Z,12.23
2018-11-03T05:57:31.816Z,12.63
2018-11-03T06:00:00.060Z,12.13
2018-11-03T06:02:28.264Z,12.07
2018-11-03T06:04:56.512Z,12.07
2018-11-03T06:07:25.054Z,11.07
2018-11-03T06:09:53.228Z,11.83
2018-11-03T06:12:21.540Z,11.57
2018-11-03T06:14:49.734Z,10.63
2018-11-03T06:17:17.900Z,11.27
2018-11-03T06:19:46.070Z,12.07
2018-11-03T06:22:14.403Z,11.03
2018-11-03T06:24:42.542Z,10.23
2018-11-03T06:27:10.737Z,10.63
2018-11-03T06:29:38.917Z,10.80
2018-11-03T06:32:07.097Z,11.60
2018-11-03T06:34:35.325Z,11.07
2018-11-03T06:37:03.509Z,10.97
2018-11-03T06:39:31.692Z,11.03
2018-11-03T06:41:59.893Z,11.27
2018-11-03T06:44:28.109Z,11.83
2018-11-03T06:46:56.308Z,11.90
2018-11-03T06:49:25.117Z,11.47
2018-11-03T06:51:53.829Z,11.80
2018-11-03T06:54:22.221Z,12.67
2018-11-03T06:56:50.433Z,12.10
2018-11-03T06:59:19.093Z,11.40
2018-11-03T07:01:47.300Z,12.20
2018-11-03T07:04:15.833Z,11.20
2018-11-03T07:06:44.032Z,12.00
2018-11-03T07:09:13.108Z,11.07
2018-11-03T07:11:41.430Z,10.63
2018-11-03T07:14:10.173Z,11.37
2018-11-03T07:16:38.346Z,11.83
2018-11-03T07:19:06.697Z,12.10
2018-11-03T07:21:35.233Z,10.70
2018-11-03T07:24:03.933Z,10.97
2018-11-03T07:26:32.217Z,12.23
2018-11-03T07:29:00.461Z,11.67
2018-11-03T07:31:28.649Z,11.13
2018-11-03T07:33:57.168Z,12.27
2018-11-03T07:36:25.380Z,12.10
2018-11-03T07:38:53.614Z,11.87
2018-11-03T07:41:21.869Z,11.63
2018-11-03T07:43:50.100Z,10.90
2018-11-03T07:46:18.317Z,9.90
2018-11-03T07:48:46.592Z,10.37
2018-11-03T07:51:14.766Z,9.10
2018-11-03T07:53:43.010Z,9.37
2018-11-03T07:56:11.221Z,8.50
2018-11-03T07:58:39.431Z,9.23
2018-11-03T08:01:07.670Z,9.33
2018-11-03T08:03:35.856Z,9.20
2018-11-03T08:06:04.663Z,9.23
2018-11-03T08:08:32.852Z,10.10
2018-11-03T08:11:01.217Z,9.27
2018-11-03T08:13:29.467Z,8.33
2018-11-03T08:15:57.675Z,8.83
2018-11-03T08:18:25.860Z,9.07
2018-11-03T08:20:54.073Z,9.50
2018-11-03T08:23:22.308Z,8.97
2018-11-03T08:25:50.503Z,9.13
2018-11-03T08:28:18.795Z,8.83
2018-11-03T08:30:47.000Z,8.83
2018-11-03T08:33:15.206Z,9.10
2018-11-03T08:35:43.412Z,9.30
2018-11-03T08:38:11.689Z,8.23
2018-11-03T08:40:40.018Z,8.80
2018-11-03T08:43:08.672Z,8.33
2018-11-03T08:45:36.874Z,8.67
2018-11-03T08:48:05.433Z,9.03
2018-11-03T08:50:33.694Z,8.03
2018-11-03T08:53:01.904Z,9.10
2018-11-03T08:55:30.214Z,7.83
2018-11-03T08:57:58.409Z,7.90
2018-11-03T09:00:26.637Z,7.70
2018-11-03T09:02:54.837Z,8.23
2018-11-03T09:05:23.056Z,8.53
2018-11-03T09:07:51.271Z,8.10
2018-11-03T09:10:19.481Z,8.53
2018-11-03T09:12:47.692Z,9.43
2018-11-03T09:15:16.122Z,7.70
2018-11-03T09:17:44.684Z,8.17
2018-11-03T09:20:13.520Z,7.80
2018-11-03T09:22:41.780Z,7.80
2018-11-03T09:25:11.320Z,7.43
2018-11-03T09:27:40.551Z,7.70
2018-11-03T09:30:10.762Z,7.40
2018-11-03T09:32:41.880Z,7.67
2018-11-03T09:35:11.117Z,7.30
2018-11-03T09:37:39.323Z,7.20
2018-11-03T09:40:10.740Z,6.90
2018-11-03T09:42:39.116Z,7.03
2018-11-03T09:45:07.911Z,7.50
2018-11-03T09:47:36.045Z,7.37
2018-11-03T09:50:04.378Z,6.87
2018-11-03T09:52:32.563Z,7.20
2018-11-03T09:55:00.760Z,7.20
2018-11-03T09:57:28.937Z,6.83
2018-11-03T09:59:57.199Z,6.20
2018-11-03T10:02:25.370Z,6.03
2018-11-03T10:04:53.553Z,7.00
2018-11-03T10:07:21.761Z,6.73
2018-11-03T10:09:49.953Z,6.13
2018-11-03T10:12:18.150Z,6.60
2018-11-03T10:14:46.355Z,5.97
2018-11-03T10:17:14.533Z,6.37
2018-11-03T10:19:42.709Z,5.73
2018-11-03T10:22:10.950Z,6.67
2018-11-03T10:24:39.089Z,6.17
2018-11-03T10:27:07.073Z,6.37
2018-11-03T10:29:35.249Z,6.00
2018-11-03T10:32:03.428Z,5.90
2018-11-03T10:34:31.669Z,5.13
2018-11-03T10:36:59.878Z,5.60
2018-11-03T10:39:28.113Z,5.40
2018-11-03T10:41:56.373Z,5.00
2018-11-03T10:44:24.585Z,5.10
2018-11-03T10:46:52.815Z,4.80
2018-11-03T10:49:21.066Z,4.80
2018-11-03T10:51:49.330Z,5.10
2018-11-03T10:54:17.579Z,5.07
2018-11-03T10:56:45.788Z,4.90
2018-11-03T10:59:14.027Z,5.13
2018-11-03T11:01:47.532Z,5.00
2018-11-03T11:04:21.093Z,5.47
2018-11-03T11:06:54.712Z,5.20
2018-11-03T11:09:28.366Z,5.80
2018-11-03T11:12:02.219Z,5.13
2018-11-03T11:14:30.557Z,5.13
2018-11-03T11:16:58.813Z,4.87
2018-11-03T11:19:26.989Z,4.60
2018-11-03T11:21:55.197Z,4.70
2018-11-03T11:24:23.647Z,4.00
2018-11-03T11:26:51.603Z,3.70
2018-11-03T11:29:19.844Z,3.90
2018-11-03T11:31:48.046Z,4.10
2018-11-03T11:34:16.263Z,3.87
2018-11-03T11:36:44.464Z,4.07
2018-11-03T11:39:12.687Z,4.67
2018-11-03T11:41:40.919Z,5.03
2018-11-03T11:44:09.335Z,4.50
2018-11-03T11:46:37.575Z,4.30
2018-11-03T11:49:05.913Z,4.30
2018-11-03T11:51:34.161Z,4.13
2018-11-03T11:54:02.488Z,4.17
2018-11-03T11:56:30.699Z,3.60
2018-11-03T11:58:58.932Z,4.03
2018-11-03T12:01:27.186Z,4.40
2018-11-03T12:03:55.467Z,4.40
2018-11-03T12:06:23.679Z,4.63
2018-11-03T12:08:51.871Z,4.43
2018-11-03T12:11:20.099Z,4.50
2018-11-03T12:13:48.305Z,4.80
2018-11-03T12:16:16.655Z,4.50
2018-11-03T12:18:44.778Z,4.60
2018-11-03T12:21:13.045Z,4.23
2018-11-03T12:23:41.242Z,4.53
2018-11-03T12:26:09.485Z,4.40
2018-11-03T12:28:37.748Z,4.80
2018-11-03T12:31:06.231Z,4.93
2018-11-03T12:33:34.431Z,4.90
2018-11-03T12:36:02.649Z,4.83
2018-11-03T12:38:30.961Z,5.00
2018-11-03T12:40:59.261Z,4.83
2018-11-03T12:43:27.358Z,4.60
2018-11-03T12:45:55.565Z,4.80
2018-11-03T12:48:23.903Z,4.83
2018-11-03T12:50:52.057Z,4.63
2018-11-03T12:53:20.247Z,4.93
2018-11-03T12:55:48.445Z,4.40
2018-11-03T12:58:16.657Z,4.60
2018-11-03T13:00:44.877Z,4.27
2018-11-03T13:03:13.133Z,4.90
2018-11-03T13:05:41.328Z,4.53
2018-11-03T13:08:09.552Z,4.50
2018-11-03T13:10:37.772Z,4.70
2018-11-03T13:13:06.085Z,4.90
2018-11-03T13:15:34.332Z,4.03
2018-11-03T13:18:02.558Z,4.70
2018-11-03T13:20:30.854Z,4.10
2018-11-03T13:22:59.288Z,4.07
2018-11-03T13:25:27.437Z,4.43
2018-11-03T13:27:55.858Z,7.10
2018-11-03T13:30:24.124Z,5.53
2018-11-03T13:32:52.369Z,5.00
2018-11-03T13:35:21.425Z,4.47
2018-11-03T13:37:51.683Z,5.20
2018-11-03T13:40:19.994Z,4.80
2018-11-03T13:42:48.269Z,5.57
2018-11-03T13:45:16.537Z,5.10
2018-11-03T13:47:44.839Z,5.53
2018-11-03T13:50:16.277Z,9.60
2018-11-03T13:52:45.645Z,6.30
2018-11-03T13:55:13.913Z,6.47
2018-11-03T13:57:43.141Z,8.67
2018-11-03T14:00:12.493Z,9.17
2018-11-03T14:02:41.668Z,7.00
2018-11-03T14:05:10.541Z,6.47
2018-11-03T14:07:38.790Z,6.57
2018-11-03T14:10:08.596Z,6.87
2018-11-03T14:12:36.960Z,6.20
2018-11-03T14:15:05.578Z,9.87
2018-11-03T14:17:33.809Z,6.97
2018-11-03T14:20:02.022Z,6.87
2018-11-03T14:22:30.239Z,7.00
2018-11-03T14:24:58.482Z,6.80
2018-11-03T14:27:26.710Z,6.87
2018-11-03T14:29:54.914Z,7.40
2018-11-03T14:32:23.203Z,7.30
2018-11-03T14:34:51.457Z,6.90
2018-11-03T14:37:19.727Z,7.10
2018-11-03T14:39:47.987Z,6.87
2018-11-03T14:42:16.186Z,8.63
2018-11-03T14:44:44.472Z,11.57
2018-11-03T14:47:12.657Z,6.13
2018-11-03T14:49:40.867Z,7.17
2018-11-03T14:52:09.062Z,7.80
2018-11-03T14:54:37.656Z,7.30
2018-11-03T14:57:05.869Z,6.93
2018-11-03T14:59:34.093Z,7.37
2018-11-03T15:02:02.294Z,8.07
2018-11-03T15:04:30.507Z,19.70
2018-11-03T15:06:58.718Z,8.80
2018-11-03T15:09:26.927Z,8.90
2018-11-03T15:11:55.129Z,9.97
2018-11-03T15:14:23.491Z,11.00
2018-11-03T15:16:51.486Z,12.67
2018-11-03T15:19:19.669Z,8.30
2018-11-03T15:21:47.849Z,8.57
2018-11-03T15:24:16.036Z,8.63
2018-11-03T15:26:44.260Z,8.87
2018-11-03T15:29:12.437Z,10.93
2018-11-03T15:31:40.625Z,9.33
2018-11-03T15:34:08.794Z,9.17
2018-11-03T15:36:36.973Z,8.63
2018-11-03T15:39:05.828Z,9.00
2018-11-03T15:41:34.092Z,9.30
2018-11-03T15:44:02.181Z,9.97
2018-11-03T15:46:30.349Z,9.10
2018-11-03T15:48:58.530Z,10.30
2018-11-03T15:51:26.689Z,13.23
2018-11-03T15:53:54.863Z,12.57
2018-11-03T15:56:23.036Z,11.67
2018-11-03T15:58:51.196Z,11.60
2018-11-03T16:01:19.392Z,11.43
2018-11-03T16:03:47.601Z,10.17
2018-11-03T16:06:15.782Z,10.43
2018-11-03T16:08:43.984Z,11.80
2018-11-03T16:11:12.185Z,11.83
2018-11-03T16:13:40.356Z,10.80
2018-11-03T16:16:08.528Z,10.33
2018-11-03T16:18:36.823Z,12.40
2018-11-03T16:21:05.349Z,12.80
2018-11-03T16:23:33.603Z,14.03
2018-11-03T16:26:01.980Z,13.60
2018-11-03T16:28:30.510Z,14.20
2018-11-03T16:30:58.643Z,13.10
2018-11-03T16:33:27.129Z,12.40
2018-11-03T16:35:55.310Z,13.13
2018-11-03T16:38:23.491Z,12.53
2018-11-03T16:40:51.633Z,13.00
2018-11-03T16:43:20.009Z,13.43
2018-11-03T16:45:48.405Z,13.33
2018-11-03T16:48:16.664Z,13.27
2018-11-03T16:50:44.882Z,13.97
2018-11-03T16:53:13.123Z,14.77
2018-11-03T16:55:41.436Z,14.57
2018-11-03T16:58:09.529Z,15.20
2018-11-03T17:00:37.732Z,14.53
2018-11-03T17:03:06.274Z,14.93
2018-11-03T17:05:34.478Z,14.97
2018-11-03T17:08:02.678Z,14.33
2018-11-03T17:10:30.899Z,15.30
2018-11-03T17:12:59.164Z,15.40
2018-11-03T17:15:27.310Z,16.47
2018-11-03T17:17:55.511Z,17.70
2018-11-03T17:20:23.750Z,17.60
2018-11-03T17:22:51.945Z,19.70
2018-11-03T17:25:20.276Z,18.73
2018-11-03T17:27:48.385Z,19.50
2018-11-03T17:30:16.638Z,17.43
2018-11-03T17:32:45.322Z,21.87
2018-11-03T17:35:13.821Z,23.83
2018-11-03T17:37:42.391Z,27.83
2018-11-03T17:40:11.179Z,27.20
2018-11-03T17:42:39.405Z,18.20
2018-11-03T17:45:08.764Z,15.90
2018-11-03T17:47:36.992Z,16.67
2018-11-03T17:50:06.188Z,17.20
2018-11-03T17:52:34.434Z,20.13
2018-11-03T17:55:02.680Z,21.03
2018-11-03T17:57:30.909Z,21.57
2018-11-03T17:59:59.247Z,22.83
2018-11-03T18:02:27.381Z,28.33
2018-11-03T18:04:55.843Z,23.97
2018-11-03T18:07:24.106Z,20.17
2018-11-03T18:09:52.350Z,19.00
2018-11-03T18:12:20.971Z,18.67
2018-11-03T18:14:49.177Z,19.00
2018-11-03T18:17:17.637Z,18.67
2018-11-03T18:19:46.027Z,18.67
2018-11-03T18:22:14.574Z,17.90
2018-11-03T18:24:42.889Z,18.60
2018-11-03T18:27:11.160Z,19.13
2018-11-03T18:29:39.455Z,18.53
2018-11-03T18:32:07.747Z,18.80
2018-11-03T18:34:36.045Z,18.67
2018-11-03T18:37:04.427Z,19.97
2018-11-03T18:39:32.672Z,23.93
2018-11-03T18:42:00.895Z,20.67
2018-11-03T18:44:29.215Z,21.23
2018-11-03T18:46:57.451Z,19.20
2018-11-03T18:49:25.913Z,22.40
2018-11-03T18:51:54.255Z,21.13
2018-11-03T18:54:22.411Z,22.90
2018-11-03T18:56:50.637Z,23.07
2018-11-03T18:59:18.956Z,21.47
2018-11-03T19:01:47.270Z,20.67
2018-11-03T19:04:15.538Z,18.13
2018-11-03T19:06:43.826Z,18.40
2018-11-03T19:09:12.135Z,17.93
2018-11-03T19:11:40.372Z,17.50
2018-11-03T19:14:08.597Z,18.47
2018-11-03T19:16:36.897Z,17.70
2018-11-03T19:19:05.326Z,17.63
2018-11-03T19:21:33.556Z,16.73
2018-11-03T19:24:01.836Z,17.17
2018-11-03T19:26:30.043Z,18.23
2018-11-03T19:28:58.296Z,17.67
2018-11-03T19:31:26.583Z,17.60
2018-11-03T19:33:54.811Z,17.67
2018-11-03T19:36:23.045Z,17.47
2018-11-03T19:38:51.362Z,17.03
2018-11-03T19:41:19.609Z,17.07
2018-11-03T19:43:48.173Z,17.93
2018-11-03T19:46:16.492Z,17.70
2018-11-03T19:48:44.728Z,17.50
2018-11-03T19:51:13.086Z,18.20
2018-11-03T19:53:41.318Z,19.13
2018-11-03T19:56:09.593Z,18.73
2018-11-03T19:58:37.951Z,18.33
2018-11-03T20:01:06.221Z,18.13
2018-11-03T20:03:34.439Z,18.57
2018-11-03T20:06:02.710Z,20.13
2018-11-03T20:08:30.924Z,19.07
2018-11-03T20:10:59.160Z,17.30
2018-11-03T20:13:27.437Z,18.63
2018-11-03T20:15:55.688Z,18.50
2018-11-03T20:18:23.922Z,18.23
2018-11-03T20:20:52.156Z,19.20
2018-11-03T20:23:20.573Z,18.30
2018-11-03T20:25:48.818Z,18.33
2018-11-03T20:28:17.033Z,18.50
2018-11-03T20:30:45.267Z,19.37
2018-11-03T20:33:13.479Z,20.00
2018-11-03T20:35:41.690Z,19.00
2018-11-03T20:38:09.953Z,19.30
2018-11-03T20:40:38.150Z,19.07
2018-11-03T20:43:06.395Z,19.23
2018-11-03T20:45:34.623Z,20.50
2018-11-03T20:48:02.855Z,19.87
2018-11-03T20:50:31.129Z,20.73
2018-11-03T20:52:59.401Z,20.77
2018-11-03T20:55:27.685Z,21.43
2018-11-03T20:57:55.887Z,19.83
2018-11-03T21:00:24.106Z,20.43
2018-11-03T21:02:52.300Z,19.83
2018-11-03T21:05:20.506Z,22.43
2018-11-03T21:07:48.725Z,22.03
2018-11-03T21:10:16.918Z,21.03
2018-11-03T21:12:45.109Z,20.43
2018-11-03T21:15:13.322Z,21.20
2018-11-03T21:17:41.533Z,21.80
2018-11-03T21:20:09.890Z,22.83
2018-11-03T21:22:38.153Z,20.97
2018-11-03T21:25:06.372Z,21.00
2018-11-03T21:27:34.617Z,20.57
2018-11-03T21:30:02.845Z,20.47
2018-11-03T21:32:31.116Z,19.43
2018-11-03T21:34:59.234Z,19.73
2018-11-03T21:37:27.464Z,20.53
2018-11-03T21:39:55.722Z,19.67
2018-11-03T21:42:23.942Z,19.90
2018-11-03T21:44:52.196Z,18.87
2018-11-03T21:47:22.424Z,20.40
2018-11-03T21:49:50.705Z,19.13
2018-11-03T21:52:18.973Z,19.00
2018-11-03T21:54:47.188Z,19.77
2018-11-03T21:57:15.392Z,20.30
2018-11-03T21:59:43.693Z,18.60
2018-11-03T22:02:11.994Z,19.60
2018-11-03T22:04:40.200Z,18.57
2018-11-03T22:07:08.394Z,18.67
2018-11-03T22:09:36.666Z,18.87
2018-11-03T22:12:04.876Z,18.80
2018-11-03T22:14:33.133Z,18.27
2018-11-03T22:17:01.350Z,17.00
2018-11-03T22:19:29.542Z,18.13
2018-11-03T22:21:57.800Z,17.23
2018-11-03T22:24:26.044Z,17.17
2018-11-03T22:26:54.248Z,18.10
2018-11-03T22:29:22.512Z,17.77
2018-11-03T22:31:50.718Z,16.10
2018-11-03T22:34:18.959Z,17.03
2018-11-03T22:36:47.224Z,18.27
2018-11-03T22:39:15.436Z,17.00
2018-11-03T22:41:43.690Z,17.37
2018-11-03T22:44:12.006Z,16.13
2018-11-03T22:46:40.265Z,17.37
2018-11-03T22:49:08.468Z,16.03
2018-11-03T22:51:36.810Z,16.33
2018-11-03T22:54:05.214Z,15.80
2018-11-03T22:56:33.434Z,15.77
2018-11-03T22:59:01.675Z,15.07
2018-11-03T23:01:29.909Z,16.13
2018-11-03T23:03:58.119Z,16.17
2018-11-03T23:06:26.341Z,15.70
2018-11-03T23:08:54.574Z,15.60
2018-11-03T23:11:22.796Z,15.33
2018-11-03T23:13:51.027Z,15.10
2018-11-03T23:16:19.238Z,15.77
2018-11-03T23:18:47.493Z,15.80
2018-11-03T23:21:15.752Z,15.60
2018-11-03T23:23:44.091Z,15.87
2018-11-03T23:26:12.332Z,15.03
2018-11-03T23:28:40.529Z,14.97
2018-11-03T23:31:08.748Z,14.30
2018-11-03T23:33:37.016Z,15.20
2018-11-03T23:36:05.328Z,14.53
2018-11-03T23:38:33.521Z,14.70
2018-11-03T23:41:02.034Z,13.57
2018-11-03T23:43:30.263Z,14.50
2018-11-03T23:45:58.482Z,14.83
2018-11-03T23:48:26.658Z,14.60
2018-11-03T23:50:54.869Z,15.57
2018-11-03T23:53:23.191Z,14.97
2018-11-03T23:55:51.332Z,13.80
2018-11-03T23:58:19.505Z,15.70
